sensor_id;sensor_type;location;lat;lon;timestamp;P1;durP1;ratioP1;P2;durP2;ratioP2
50531;SDS011;36483;37.396;-122.212;2023-03-01T00:01:14;11.77;;;1.50;;
50531;SDS011;36483;37.396;-122.212;2023-03-01T00:03:43;6.93;;;1.60;;
50531;SDS011;36483;37.396;-122.212;2023-03-01T00:06:09;5.95;;;1.30;;
50531;SDS011;36483;37.396;-122.212;2023-03-01T00:08:36;5.78;;;1.38;;
50531;SDS011;36483;37.396;-122.212;2023-03-01T00:11:07;9.85;;;1.55;;
50531;SDS011;36483;37.396;-122.212;2023-03-01T00:13:38;11.38;;;2.85;;
50531;SDS011;36483;37.396;-122.212;2023-03-01T00:16:06;7.80;;;2.42;;
50531;SDS011;36483;37.396;-122.212;2023-03-01T00:18:34;12.32;;;1.88;;
50531;SDS011;36483;37.396;-122.212;2023-03-01T00:21:00;9.05;;;2.03;;
50531;SDS011;36483;37.396;-122.212;2023-03-01T00:23:27;8.27;;;2.40;;
50531;SDS011;36483;37.396;-122.212;2023-03-01T00:25:53;11.18;;;2.92;;
50531;SDS011;36483;37.396;-122.212;2023-03-01T00:28:20;10.05;;;3.20;;
50531;SDS011;36483;37.396;-122.212;2023-03-01T00:30:46;7.65;;;1.90;;
50531;SDS011;36483;37.396;-122.212;2023-03-01T00:33:13;7.05;;;1.77;;
50531;SDS011;36483;37.396;-122.212;2023-03-01T00:35:39;8.13;;;3.55;;
50531;SDS011;36483;37.396;-122.212;2023-03-01T00:38:05;10.70;;;2.38;;
50531;SDS011;36483;37.396;-122.212;2023-03-01T00:40:32;12.85;;;4.75;;
50531;SDS011;36483;37.396;-122.212;2023-03-01T00:43:00;6.80;;;2.58;;
50531;SDS011;36483;37.396;-122.212;2023-03-01T00:45:26;9.20;;;2.63;;
50531;SDS011;36483;37.396;-122.212;2023-03-01T00:47:53;12.93;;;4.93;;
50531;SDS011;36483;37.396;-122.212;2023-03-01T00:50:20;12.13;;;4.00;;
50531;SDS011;36483;37.396;-122.212;2023-03-01T00:52:46;8.35;;;2.70;;
50531;SDS011;36483;37.396;-122.212;2023-03-01T00:55:13;7.57;;;2.78;;
50531;SDS011;36483;37.396;-122.212;2023-03-01T00:57:39;11.93;;;2.00;;
50531;SDS011;36483;37.396;-122.212;2023-03-01T01:00:05;10.45;;;3.30;;
50531;SDS011;36483;37.396;-122.212;2023-03-01T01:02:32;3.35;;;0.88;;
50531;SDS011;36483;37.396;-122.212;2023-03-01T01:04:59;10.52;;;4.28;;
50531;SDS011;36483;37.396;-122.212;2023-03-01T01:07:25;5.93;;;1.63;;
50531;SDS011;36483;37.396;-122.212;2023-03-01T01:09:51;7.50;;;3.95;;
50531;SDS011;36483;37.396;-122.212;2023-03-01T01:12:17;5.82;;;1.70;;
50531;SDS011;36483;37.396;-122.212;2023-03-01T01:14:44;3.55;;;1.33;;
50531;SDS011;36483;37.396;-122.212;2023-03-01T01:17:10;3.53;;;0.80;;
50531;SDS011;36483;37.396;-122.212;2023-03-01T01:19:36;4.03;;;0.93;;
50531;SDS011;36483;37.396;-122.212;2023-03-01T01:22:02;11.07;;;6.63;;
50531;SDS011;36483;37.396;-122.212;2023-03-01T01:24:29;5.97;;;2.70;;
50531;SDS011;36483;37.396;-122.212;2023-03-01T01:26:55;2.85;;;0.93;;
50531;SDS011;36483;37.396;-122.212;2023-03-01T01:29:22;3.00;;;1.42;;
50531;SDS011;36483;37.396;-122.212;2023-03-01T01:31:48;2.72;;;1.05;;
50531;SDS011;36483;37.396;-122.212;2023-03-01T01:34:19;4.72;;;0.75;;
50531;SDS011;36483;37.396;-122.212;2023-03-01T01:36:50;1.83;;;0.70;;
50531;SDS011;36483;37.396;-122.212;2023-03-01T01:39:19;1.52;;;0.55;;
50531;SDS011;36483;37.396;-122.212;2023-03-01T01:41:46;3.47;;;0.60;;
50531;SDS011;36483;37.396;-122.212;2023-03-01T01:44:20;2.60;;;0.73;;
50531;SDS011;36483;37.396;-122.212;2023-03-01T01:46:47;1.27;;;0.50;;
50531;SDS011;36483;37.396;-122.212;2023-03-01T01:49:24;4.25;;;0.63;;
50531;SDS011;36483;37.396;-122.212;2023-03-01T01:57:10;4.07;;;0.80;;
50531;SDS011;36483;37.396;-122.212;2023-03-01T02:02:05;4.28;;;0.95;;
50531;SDS011;36483;37.396;-122.212;2023-03-01T02:04:31;2.05;;;0.88;;
50531;SDS011;36483;37.396;-122.212;2023-03-01T02:07:00;3.05;;;0.75;;
50531;SDS011;36483;37.396;-122.212;2023-03-01T02:09:28;2.28;;;0.80;;
50531;SDS011;36483;37.396;-122.212;2023-03-01T02:11:56;3.40;;;0.75;;
50531;SDS011;36483;37.396;-122.212;2023-03-01T02:14:23;5.20;;;1.10;;
50531;SDS011;36483;37.396;-122.212;2023-03-01T02:16:49;2.25;;;0.88;;
50531;SDS011;36483;37.396;-122.212;2023-03-01T02:19:20;5.03;;;1.10;;
50531;SDS011;36483;37.396;-122.212;2023-03-01T02:22:20;2.78;;;1.10;;
50531;SDS011;36483;37.396;-122.212;2023-03-01T02:27:22;4.07;;;1.42;;
50531;SDS011;36483;37.396;-122.212;2023-03-01T02:29:53;6.03;;;1.45;;
50531;SDS011;36483;37.396;-122.212;2023-03-01T02:32:19;6.18;;;1.45;;
50531;SDS011;36483;37.396;-122.212;2023-03-01T02:34:53;5.22;;;1.60;;
50531;SDS011;36483;37.396;-122.212;2023-03-01T02:37:20;6.45;;;1.30;;
50531;SDS011;36483;37.396;-122.212;2023-03-01T02:39:55;5.10;;;1.10;;
50531;SDS011;36483;37.396;-122.212;2023-03-01T02:42:26;6.07;;;1.40;;
50531;SDS011;36483;37.396;-122.212;2023-03-01T02:44:54;4.22;;;1.00;;
50531;SDS011;36483;37.396;-122.212;2023-03-01T02:47:20;4.82;;;1.27;;
50531;SDS011;36483;37.396;-122.212;2023-03-01T02:49:47;4.60;;;0.90;;
50531;SDS011;36483;37.396;-122.212;2023-03-01T02:55:13;7.10;;;1.30;;
50531;SDS011;36483;37.396;-122.212;2023-03-01T02:57:41;5.18;;;1.10;;
50531;SDS011;36483;37.396;-122.212;2023-03-01T03:00:09;4.53;;;1.20;;
50531;SDS011;36483;37.396;-122.212;2023-03-01T03:02:47;3.85;;;1.08;;
50531;SDS011;36483;37.396;-122.212;2023-03-01T03:05:17;3.08;;;1.02;;
50531;SDS011;36483;37.396;-122.212;2023-03-01T03:07:45;4.78;;;0.93;;
50531;SDS011;36483;37.396;-122.212;2023-03-01T03:10:18;5.82;;;0.93;;
50531;SDS011;36483;37.396;-122.212;2023-03-01T03:12:50;3.88;;;0.98;;
50531;SDS011;36483;37.396;-122.212;2023-03-01T03:15:18;5.63;;;1.15;;
50531;SDS011;36483;37.396;-122.212;2023-03-01T03:17:46;3.50;;;1.00;;
50531;SDS011;36483;37.396;-122.212;2023-03-01T03:20:13;2.78;;;1.25;;
50531;SDS011;36483;37.396;-122.212;2023-03-01T03:22:53;2.17;;;1.10;;
50531;SDS011;36483;37.396;-122.212;2023-03-01T03:25:21;3.65;;;0.90;;
50531;SDS011;36483;37.396;-122.212;2023-03-01T03:27:48;4.47;;;0.95;;
50531;SDS011;36483;37.396;-122.212;2023-03-01T03:30:22;3.00;;;0.82;;
50531;SDS011;36483;37.396;-122.212;2023-03-01T03:32:50;2.63;;;0.82;;
50531;SDS011;36483;37.396;-122.212;2023-03-01T03:37:50;4.07;;;1.17;;
50531;SDS011;36483;37.396;-122.212;2023-03-01T03:40:36;3.17;;;1.08;;
50531;SDS011;36483;37.396;-122.212;2023-03-01T03:43:04;2.45;;;0.93;;
50531;SDS011;36483;37.396;-122.212;2023-03-01T03:45:32;3.58;;;1.30;;
50531;SDS011;36483;37.396;-122.212;2023-03-01T03:47:59;3.67;;;1.00;;
50531;SDS011;36483;37.396;-122.212;2023-03-01T03:50:25;3.80;;;1.00;;
50531;SDS011;36483;37.396;-122.212;2023-03-01T03:52:52;2.97;;;1.30;;
50531;SDS011;36483;37.396;-122.212;2023-03-01T03:55:18;4.57;;;1.48;;
50531;SDS011;36483;37.396;-122.212;2023-03-01T03:57:45;3.75;;;1.15;;
50531;SDS011;36483;37.396;-122.212;2023-03-01T04:00:20;5.18;;;1.75;;
50531;SDS011;36483;37.396;-122.212;2023-03-01T04:02:49;3.65;;;1.20;;
50531;SDS011;36483;37.396;-122.212;2023-03-01T04:05:16;7.22;;;1.48;;
50531;SDS011;36483;37.396;-122.212;2023-03-01T04:07:44;3.70;;;1.25;;
50531;SDS011;36483;37.396;-122.212;2023-03-01T04:10:11;5.07;;;1.40;;
50531;SDS011;36483;37.396;-122.212;2023-03-01T04:12:42;3.25;;;1.15;;
50531;SDS011;36483;37.396;-122.212;2023-03-01T04:15:08;3.25;;;1.00;;
50531;SDS011;36483;37.396;-122.212;2023-03-01T04:17:39;4.00;;;0.93;;
50531;SDS011;36483;37.396;-122.212;2023-03-01T04:20:10;3.67;;;1.02;;
50531;SDS011;36483;37.396;-122.212;2023-03-01T04:22:38;3.58;;;0.98;;
50531;SDS011;36483;37.396;-122.212;2023-03-01T04:25:05;3.58;;;1.00;;
50531;SDS011;36483;37.396;-122.212;2023-03-01T04:27:35;3.80;;;1.20;;
50531;SDS011;36483;37.396;-122.212;2023-03-01T04:30:05;3.30;;;1.00;;
50531;SDS011;36483;37.396;-122.212;2023-03-01T04:32:32;4.20;;;1.38;;
50531;SDS011;36483;37.396;-122.212;2023-03-01T04:34:58;8.48;;;2.20;;
50531;SDS011;36483;37.396;-122.212;2023-03-01T04:37:24;3.15;;;1.30;;
50531;SDS011;36483;37.396;-122.212;2023-03-01T04:39:50;5.72;;;1.40;;
50531;SDS011;36483;37.396;-122.212;2023-03-01T04:42:17;2.85;;;1.20;;
50531;SDS011;36483;37.396;-122.212;2023-03-01T04:44:43;2.55;;;1.10;;
50531;SDS011;36483;37.396;-122.212;2023-03-01T04:47:10;4.13;;;1.38;;
50531;SDS011;36483;37.396;-122.212;2023-03-01T04:49:36;5.22;;;1.23;;
50531;SDS011;36483;37.396;-122.212;2023-03-01T04:52:03;2.90;;;1.00;;
50531;SDS011;36483;37.396;-122.212;2023-03-01T04:54:31;6.10;;;1.30;;
50531;SDS011;36483;37.396;-122.212;2023-03-01T04:56:58;3.70;;;1.00;;
50531;SDS011;36483;37.396;-122.212;2023-03-01T04:59:24;3.38;;;1.02;;
50531;SDS011;36483;37.396;-122.212;2023-03-01T05:01:51;4.05;;;1.50;;
50531;SDS011;36483;37.396;-122.212;2023-03-01T05:04:17;3.53;;;1.33;;
50531;SDS011;36483;37.396;-122.212;2023-03-01T05:06:44;3.30;;;1.35;;
50531;SDS011;36483;37.396;-122.212;2023-03-01T05:09:10;3.53;;;1.10;;
50531;SDS011;36483;37.396;-122.212;2023-03-01T05:11:36;3.00;;;1.30;;
50531;SDS011;36483;37.396;-122.212;2023-03-01T05:14:04;4.75;;;1.40;;
50531;SDS011;36483;37.396;-122.212;2023-03-01T05:16:30;2.40;;;1.25;;
50531;SDS011;36483;37.396;-122.212;2023-03-01T05:18:57;4.53;;;1.35;;
50531;SDS011;36483;37.396;-122.212;2023-03-01T05:21:23;4.32;;;1.33;;
50531;SDS011;36483;37.396;-122.212;2023-03-01T05:23:50;6.50;;;1.63;;
50531;SDS011;36483;37.396;-122.212;2023-03-01T05:26:18;5.95;;;1.45;;
50531;SDS011;36483;37.396;-122.212;2023-03-01T05:28:46;5.18;;;1.35;;
50531;SDS011;36483;37.396;-122.212;2023-03-01T05:31:13;2.40;;;0.93;;
50531;SDS011;36483;37.396;-122.212;2023-03-01T05:33:40;4.25;;;1.15;;
50531;SDS011;36483;37.396;-122.212;2023-03-01T05:36:06;3.60;;;0.90;;
50531;SDS011;36483;37.396;-122.212;2023-03-01T05:38:34;4.43;;;1.08;;
50531;SDS011;36483;37.396;-122.212;2023-03-01T05:41:01;4.50;;;1.17;;
50531;SDS011;36483;37.396;-122.212;2023-03-01T05:43:29;6.07;;;1.48;;
50531;SDS011;36483;37.396;-122.212;2023-03-01T05:45:59;3.17;;;1.10;;
50531;SDS011;36483;37.396;-122.212;2023-03-01T05:48:25;3.47;;;1.45;;
50531;SDS011;36483;37.396;-122.212;2023-03-01T05:50:51;3.00;;;1.15;;
50531;SDS011;36483;37.396;-122.212;2023-03-01T05:53:19;4.18;;;2.10;;
50531;SDS011;36483;37.396;-122.212;2023-03-01T05:55:48;5.27;;;1.40;;
50531;SDS011;36483;37.396;-122.212;2023-03-01T05:58:16;6.18;;;1.40;;
50531;SDS011;36483;37.396;-122.212;2023-03-01T06:00:44;5.57;;;1.50;;
50531;SDS011;36483;37.396;-122.212;2023-03-01T06:03:12;6.85;;;1.70;;
50531;SDS011;36483;37.396;-122.212;2023-03-01T06:05:40;4.95;;;1.45;;
50531;SDS011;36483;37.396;-122.212;2023-03-01T06:08:06;2.95;;;1.15;;
50531;SDS011;36483;37.396;-122.212;2023-03-01T06:10:32;4.32;;;1.33;;
50531;SDS011;36483;37.396;-122.212;2023-03-01T06:12:59;2.30;;;1.00;;
50531;SDS011;36483;37.396;-122.212;2023-03-01T06:15:25;3.47;;;1.20;;
50531;SDS011;36483;37.396;-122.212;2023-03-01T06:17:52;2.30;;;1.00;;
50531;SDS011;36483;37.396;-122.212;2023-03-01T06:20:22;3.83;;;1.20;;
50531;SDS011;36483;37.396;-122.212;2023-03-01T06:22:49;3.60;;;1.13;;
50531;SDS011;36483;37.396;-122.212;2023-03-01T06:25:17;4.85;;;1.13;;
50531;SDS011;36483;37.396;-122.212;2023-03-01T06:27:46;2.80;;;0.90;;
50531;SDS011;36483;37.396;-122.212;2023-03-01T06:30:14;3.53;;;1.20;;
50531;SDS011;36483;37.396;-122.212;2023-03-01T06:32:42;4.15;;;0.95;;
50531;SDS011;36483;37.396;-122.212;2023-03-01T06:35:09;4.40;;;1.15;;
50531;SDS011;36483;37.396;-122.212;2023-03-01T06:37:36;2.53;;;0.98;;
50531;SDS011;36483;37.396;-122.212;2023-03-01T06:40:03;2.05;;;1.20;;
50531;SDS011;36483;37.396;-122.212;2023-03-01T06:42:36;3.95;;;1.10;;
50531;SDS011;36483;37.396;-122.212;2023-03-01T06:45:04;4.20;;;1.33;;
50531;SDS011;36483;37.396;-122.212;2023-03-01T06:47:32;3.47;;;1.00;;
50531;SDS011;36483;37.396;-122.212;2023-03-01T06:49:59;2.38;;;0.98;;
50531;SDS011;36483;37.396;-122.212;2023-03-01T06:52:25;3.45;;;1.02;;
50531;SDS011;36483;37.396;-122.212;2023-03-01T06:54:51;2.97;;;0.88;;
50531;SDS011;36483;37.396;-122.212;2023-03-01T06:57:17;5.78;;;1.20;;
50531;SDS011;36483;37.396;-122.212;2023-03-01T06:59:44;3.85;;;1.00;;
50531;SDS011;36483;37.396;-122.212;2023-03-01T07:02:10;2.00;;;0.90;;
50531;SDS011;36483;37.396;-122.212;2023-03-01T07:04:37;2.40;;;0.90;;
50531;SDS011;36483;37.396;-122.212;2023-03-01T07:07:04;3.40;;;1.00;;
50531;SDS011;36483;37.396;-122.212;2023-03-01T07:09:30;4.07;;;0.93;;
50531;SDS011;36483;37.396;-122.212;2023-03-01T07:11:57;3.05;;;1.20;;
50531;SDS011;36483;37.396;-122.212;2023-03-01T07:14:23;4.00;;;1.33;;
50531;SDS011;36483;37.396;-122.212;2023-03-01T07:16:51;4.18;;;1.50;;
50531;SDS011;36483;37.396;-122.212;2023-03-01T07:19:18;4.63;;;1.40;;
50531;SDS011;36483;37.396;-122.212;2023-03-01T07:21:44;3.65;;;1.20;;
50531;SDS011;36483;37.396;-122.212;2023-03-01T07:24:10;4.22;;;1.70;;
50531;SDS011;36483;37.396;-122.212;2023-03-01T07:26:37;4.95;;;2.38;;
50531;SDS011;36483;37.396;-122.212;2023-03-01T07:29:03;6.60;;;1.38;;
50531;SDS011;36483;37.396;-122.212;2023-03-01T07:31:30;7.75;;;1.77;;
50531;SDS011;36483;37.396;-122.212;2023-03-01T07:33:57;5.93;;;1.30;;
50531;SDS011;36483;37.396;-122.212;2023-03-01T07:36:23;4.30;;;2.20;;
50531;SDS011;36483;37.396;-122.212;2023-03-01T07:38:50;4.47;;;1.77;;
50531;SDS011;36483;37.396;-122.212;2023-03-01T07:41:17;5.05;;;1.58;;
50531;SDS011;36483;37.396;-122.212;2023-03-01T07:44:03;5.28;;;1.20;;
50531;SDS011;36483;37.396;-122.212;2023-03-01T07:46:29;3.95;;;1.42;;
50531;SDS011;36483;37.396;-122.212;2023-03-01T07:48:55;5.95;;;1.23;;
50531;SDS011;36483;37.396;-122.212;2023-03-01T07:51:23;6.68;;;1.55;;
50531;SDS011;36483;37.396;-122.212;2023-03-01T07:53:49;5.72;;;1.58;;
50531;SDS011;36483;37.396;-122.212;2023-03-01T07:56:17;4.60;;;1.27;;
50531;SDS011;36483;37.396;-122.212;2023-03-01T07:58:44;5.75;;;1.10;;
50531;SDS011;36483;37.396;-122.212;2023-03-01T08:01:12;4.70;;;1.30;;
50531;SDS011;36483;37.396;-122.212;2023-03-01T08:03:40;7.00;;;1.58;;
50531;SDS011;36483;37.396;-122.212;2023-03-01T08:06:08;6.43;;;1.50;;
50531;SDS011;36483;37.396;-122.212;2023-03-01T08:08:35;5.85;;;1.33;;
50531;SDS011;36483;37.396;-122.212;2023-03-01T08:11:02;5.43;;;1.63;;
50531;SDS011;36483;37.396;-122.212;2023-03-01T08:13:30;4.13;;;2.08;;
50531;SDS011;36483;37.396;-122.212;2023-03-01T08:16:06;7.15;;;2.92;;
50531;SDS011;36483;37.396;-122.212;2023-03-01T08:18:36;5.15;;;1.55;;
50531;SDS011;36483;37.396;-122.212;2023-03-01T08:21:06;4.00;;;1.40;;
50531;SDS011;36483;37.396;-122.212;2023-03-01T08:26:19;4.63;;;1.48;;
50531;SDS011;36483;37.396;-122.212;2023-03-01T08:28:46;3.90;;;1.40;;
50531;SDS011;36483;37.396;-122.212;2023-03-01T08:34:11;5.18;;;2.42;;
50531;SDS011;36483;37.396;-122.212;2023-03-01T08:36:40;7.30;;;2.40;;
50531;SDS011;36483;37.396;-122.212;2023-03-01T08:39:08;9.20;;;3.55;;
50531;SDS011;36483;37.396;-122.212;2023-03-01T08:41:35;10.15;;;4.10;;
50531;SDS011;36483;37.396;-122.212;2023-03-01T08:44:02;3.67;;;1.65;;
50531;SDS011;36483;37.396;-122.212;2023-03-01T08:46:32;8.68;;;2.53;;
50531;SDS011;36483;37.396;-122.212;2023-03-01T08:49:03;4.80;;;1.40;;
50531;SDS011;36483;37.396;-122.212;2023-03-01T08:51:30;4.32;;;1.33;;
50531;SDS011;36483;37.396;-122.212;2023-03-01T08:54:02;3.05;;;1.40;;
50531;SDS011;36483;37.396;-122.212;2023-03-01T08:56:32;5.75;;;1.05;;
50531;SDS011;36483;37.396;-122.212;2023-03-01T08:58:59;2.47;;;0.98;;
50531;SDS011;36483;37.396;-122.212;2023-03-01T09:01:25;4.72;;;1.27;;
50531;SDS011;36483;37.396;-122.212;2023-03-01T09:03:51;5.55;;;1.27;;
50531;SDS011;36483;37.396;-122.212;2023-03-01T09:06:17;2.63;;;1.02;;
50531;SDS011;36483;37.396;-122.212;2023-03-01T09:08:45;4.85;;;1.30;;
50531;SDS011;36483;37.396;-122.212;2023-03-01T09:11:13;5.85;;;1.10;;
50531;SDS011;36483;37.396;-122.212;2023-03-01T09:13:43;4.63;;;1.33;;
50531;SDS011;36483;37.396;-122.212;2023-03-01T09:16:10;6.88;;;1.30;;
50531;SDS011;36483;37.396;-122.212;2023-03-01T09:18:38;5.05;;;1.20;;
50531;SDS011;36483;37.396;-122.212;2023-03-01T09:21:08;3.80;;;1.50;;
50531;SDS011;36483;37.396;-122.212;2023-03-01T09:23:40;6.47;;;2.17;;
50531;SDS011;36483;37.396;-122.212;2023-03-01T09:26:11;6.57;;;1.50;;
50531;SDS011;36483;37.396;-122.212;2023-03-01T09:28:41;11.82;;;1.45;;
50531;SDS011;36483;37.396;-122.212;2023-03-01T09:31:09;4.18;;;1.23;;
50531;SDS011;36483;37.396;-122.212;2023-03-01T09:33:38;2.13;;;0.90;;
50531;SDS011;36483;37.396;-122.212;2023-03-01T09:36:06;7.10;;;1.20;;
50531;SDS011;36483;37.396;-122.212;2023-03-01T09:38:43;8.10;;;2.35;;
50531;SDS011;36483;37.396;-122.212;2023-03-01T09:41:10;5.90;;;1.70;;
50531;SDS011;36483;37.396;-122.212;2023-03-01T09:44:23;6.68;;;2.00;;
50531;SDS011;36483;37.396;-122.212;2023-03-01T09:47:00;8.77;;;2.90;;
50531;SDS011;36483;37.396;-122.212;2023-03-01T09:49:33;10.85;;;2.13;;
50531;SDS011;36483;37.396;-122.212;2023-03-01T09:54:53;6.18;;;1.55;;
50531;SDS011;36483;37.396;-122.212;2023-03-01T09:57:31;7.25;;;1.73;;
50531;SDS011;36483;37.396;-122.212;2023-03-01T10:08:30;6.20;;;1.42;;
50531;SDS011;36483;37.396;-122.212;2023-03-01T10:11:01;6.50;;;1.50;;
50531;SDS011;36483;37.396;-122.212;2023-03-01T10:13:33;7.18;;;1.40;;
50531;SDS011;36483;37.396;-122.212;2023-03-01T10:16:15;7.03;;;1.60;;
50531;SDS011;36483;37.396;-122.212;2023-03-01T10:18:46;7.57;;;1.70;;
50531;SDS011;36483;37.396;-122.212;2023-03-01T10:21:18;6.15;;;1.50;;
50531;SDS011;36483;37.396;-122.212;2023-03-01T10:23:45;6.75;;;1.50;;
50531;SDS011;36483;37.396;-122.212;2023-03-01T10:29:23;6.75;;;1.50;;
50531;SDS011;36483;37.396;-122.212;2023-03-01T10:31:56;8.07;;;1.60;;
50531;SDS011;36483;37.396;-122.212;2023-03-01T10:34:35;6.32;;;1.20;;
50531;SDS011;36483;37.396;-122.212;2023-03-01T10:37:11;8.07;;;1.10;;
50531;SDS011;36483;37.396;-122.212;2023-03-01T10:39:57;6.68;;;1.58;;
50531;SDS011;36483;37.396;-122.212;2023-03-01T10:42:35;8.63;;;1.80;;
50531;SDS011;36483;37.396;-122.212;2023-03-01T10:50:39;9.00;;;1.85;;
50531;SDS011;36483;37.396;-122.212;2023-03-01T10:58:28;6.22;;;1.60;;
50531;SDS011;36483;37.396;-122.212;2023-03-01T11:00:59;5.90;;;1.33;;
50531;SDS011;36483;37.396;-122.212;2023-03-01T11:03:34;8.63;;;1.63;;
50531;SDS011;36483;37.396;-122.212;2023-03-01T11:06:12;6.25;;;1.48;;
50531;SDS011;36483;37.396;-122.212;2023-03-01T11:08:48;7.05;;;1.40;;
50531;SDS011;36483;37.396;-122.212;2023-03-01T11:13:51;4.80;;;1.30;;
50531;SDS011;36483;37.396;-122.212;2023-03-01T11:16:23;4.45;;;1.30;;
50531;SDS011;36483;37.396;-122.212;2023-03-01T11:24:16;8.65;;;1.73;;
50531;SDS011;36483;37.396;-122.212;2023-03-01T11:26:45;5.68;;;1.90;;
50531;SDS011;36483;37.396;-122.212;2023-03-01T11:29:32;5.55;;;1.40;;
50531;SDS011;36483;37.396;-122.212;2023-03-01T11:32:02;5.60;;;1.35;;
50531;SDS011;36483;37.396;-122.212;2023-03-01T11:34:48;4.82;;;1.55;;
50531;SDS011;36483;37.396;-122.212;2023-03-01T11:37:38;5.85;;;1.80;;
50531;SDS011;36483;37.396;-122.212;2023-03-01T11:40:21;7.20;;;1.60;;
50531;SDS011;36483;37.396;-122.212;2023-03-01T11:42:56;7.82;;;1.67;;
50531;SDS011;36483;37.396;-122.212;2023-03-01T11:45:30;7.38;;;1.65;;
50531;SDS011;36483;37.396;-122.212;2023-03-01T11:51:05;7.45;;;1.52;;
50531;SDS011;36483;37.396;-122.212;2023-03-01T11:56:41;5.15;;;1.45;;
50531;SDS011;36483;37.396;-122.212;2023-03-01T11:59:25;6.72;;;1.30;;
50531;SDS011;36483;37.396;-122.212;2023-03-01T12:02:07;7.03;;;1.38;;
50531;SDS011;36483;37.396;-122.212;2023-03-01T12:07:46;6.07;;;1.50;;
50531;SDS011;36483;37.396;-122.212;2023-03-01T12:10:22;7.25;;;1.45;;
50531;SDS011;36483;37.396;-122.212;2023-03-01T12:12:55;8.07;;;1.60;;
50531;SDS011;36483;37.396;-122.212;2023-03-01T12:15:28;9.35;;;1.70;;
50531;SDS011;36483;37.396;-122.212;2023-03-01T12:18:30;8.23;;;1.27;;
50531;SDS011;36483;37.396;-122.212;2023-03-01T12:26:34;7.38;;;1.63;;
50531;SDS011;36483;37.396;-122.212;2023-03-01T12:31:43;7.43;;;1.48;;
50531;SDS011;36483;37.396;-122.212;2023-03-01T12:50:52;7.38;;;1.50;;
50531;SDS011;36483;37.396;-122.212;2023-03-01T12:53:34;7.07;;;1.45;;
50531;SDS011;36483;37.396;-122.212;2023-03-01T12:56:08;7.18;;;1.73;;
50531;SDS011;36483;37.396;-122.212;2023-03-01T13:04:13;8.15;;;1.63;;
50531;SDS011;36483;37.396;-122.212;2023-03-01T13:06:50;12.90;;;2.15;;
50531;SDS011;36483;37.396;-122.212;2023-03-01T13:17:58;4.32;;;1.50;;
50531;SDS011;36483;37.396;-122.212;2023-03-01T13:20:45;5.03;;;1.40;;
50531;SDS011;36483;37.396;-122.212;2023-03-01T13:28:35;8.65;;;1.65;;
50531;SDS011;36483;37.396;-122.212;2023-03-01T13:31:09;10.63;;;1.73;;
50531;SDS011;36483;37.396;-122.212;2023-03-01T13:34:00;6.30;;;1.63;;
50531;SDS011;36483;37.396;-122.212;2023-03-01T13:41:59;7.05;;;1.75;;
50531;SDS011;36483;37.396;-122.212;2023-03-01T13:44:30;6.97;;;1.92;;
50531;SDS011;36483;37.396;-122.212;2023-03-01T13:47:03;6.18;;;2.05;;
50531;SDS011;36483;37.396;-122.212;2023-03-01T13:50:00;13.18;;;4.90;;
50531;SDS011;36483;37.396;-122.212;2023-03-01T13:52:44;9.52;;;4.25;;
50531;SDS011;36483;37.396;-122.212;2023-03-01T13:57:40;7.47;;;2.03;;
50531;SDS011;36483;37.396;-122.212;2023-03-01T14:00:26;7.55;;;2.30;;
50531;SDS011;36483;37.396;-122.212;2023-03-01T14:03:01;8.25;;;2.33;;
50531;SDS011;36483;37.396;-122.212;2023-03-01T14:05:29;11.43;;;2.30;;
50531;SDS011;36483;37.396;-122.212;2023-03-01T14:07:56;7.05;;;2.17;;
50531;SDS011;36483;37.396;-122.212;2023-03-01T14:10:22;6.85;;;2.40;;
50531;SDS011;36483;37.396;-122.212;2023-03-01T14:13:13;7.50;;;1.73;;
50531;SDS011;36483;37.396;-122.212;2023-03-01T14:15:45;6.88;;;1.90;;
50531;SDS011;36483;37.396;-122.212;2023-03-01T14:20:44;8.02;;;2.33;;
50531;SDS011;36483;37.396;-122.212;2023-03-01T14:23:20;7.90;;;1.58;;
50531;SDS011;36483;37.396;-122.212;2023-03-01T14:25:48;6.13;;;1.60;;
50531;SDS011;36483;37.396;-122.212;2023-03-01T14:30:48;4.85;;;1.83;;
50531;SDS011;36483;37.396;-122.212;2023-03-01T14:33:20;4.82;;;1.60;;
50531;SDS011;36483;37.396;-122.212;2023-03-01T14:35:54;7.47;;;1.65;;
50531;SDS011;36483;37.396;-122.212;2023-03-01T14:38:44;8.55;;;1.80;;
50531;SDS011;36483;37.396;-122.212;2023-03-01T14:41:30;8.45;;;1.40;;
50531;SDS011;36483;37.396;-122.212;2023-03-01T14:44:05;6.93;;;1.35;;
50531;SDS011;36483;37.396;-122.212;2023-03-01T14:46:37;5.07;;;1.10;;
50531;SDS011;36483;37.396;-122.212;2023-03-01T14:49:26;3.97;;;1.15;;
50531;SDS011;36483;37.396;-122.212;2023-03-01T14:57:05;3.97;;;1.63;;
50531;SDS011;36483;37.396;-122.212;2023-03-01T14:59:32;3.15;;;1.10;;
50531;SDS011;36483;37.396;-122.212;2023-03-01T15:02:00;3.65;;;1.30;;
50531;SDS011;36483;37.396;-122.212;2023-03-01T15:04:26;4.72;;;1.20;;
50531;SDS011;36483;37.396;-122.212;2023-03-01T15:06:54;6.90;;;1.50;;
50531;SDS011;36483;37.396;-122.212;2023-03-01T15:09:21;5.97;;;1.48;;
50531;SDS011;36483;37.396;-122.212;2023-03-01T15:11:48;4.88;;;1.60;;
50531;SDS011;36483;37.396;-122.212;2023-03-01T15:14:27;4.28;;;1.27;;
50531;SDS011;36483;37.396;-122.212;2023-03-01T15:19:58;4.80;;;1.27;;
50531;SDS011;36483;37.396;-122.212;2023-03-01T15:22:25;5.32;;;0.98;;
50531;SDS011;36483;37.396;-122.212;2023-03-01T15:24:52;5.50;;;1.38;;
50531;SDS011;36483;37.396;-122.212;2023-03-01T15:27:20;4.65;;;1.10;;
50531;SDS011;36483;37.396;-122.212;2023-03-01T15:29:55;3.50;;;1.17;;
50531;SDS011;36483;37.396;-122.212;2023-03-01T15:32:34;4.50;;;1.20;;
50531;SDS011;36483;37.396;-122.212;2023-03-01T15:40:56;4.45;;;1.15;;
50531;SDS011;36483;37.396;-122.212;2023-03-01T15:43:40;5.80;;;1.48;;
50531;SDS011;36483;37.396;-122.212;2023-03-01T15:46:49;4.40;;;1.48;;
50531;SDS011;36483;37.396;-122.212;2023-03-01T15:49:04;4.97;;;1.45;;
50531;SDS011;36483;37.396;-122.212;2023-03-01T15:51:44;4.97;;;1.25;;
50531;SDS011;36483;37.396;-122.212;2023-03-01T15:54:17;7.18;;;3.03;;
50531;SDS011;36483;37.396;-122.212;2023-03-01T15:56:44;7.68;;;2.30;;
50531;SDS011;36483;37.396;-122.212;2023-03-01T15:59:10;7.32;;;2.85;;
50531;SDS011;36483;37.396;-122.212;2023-03-01T16:01:42;8.48;;;2.70;;
50531;SDS011;36483;37.396;-122.212;2023-03-01T16:04:12;14.45;;;4.88;;
50531;SDS011;36483;37.396;-122.212;2023-03-01T16:06:52;9.02;;;3.80;;
50531;SDS011;36483;37.396;-122.212;2023-03-01T16:09:22;10.50;;;3.25;;
50531;SDS011;36483;37.396;-122.212;2023-03-01T16:11:49;6.65;;;2.22;;
50531;SDS011;36483;37.396;-122.212;2023-03-01T16:14:16;8.30;;;2.58;;
50531;SDS011;36483;37.396;-122.212;2023-03-01T16:16:43;12.77;;;3.28;;
50531;SDS011;36483;37.396;-122.212;2023-03-01T16:19:09;9.52;;;3.72;;
50531;SDS011;36483;37.396;-122.212;2023-03-01T16:21:35;8.15;;;3.67;;
50531;SDS011;36483;37.396;-122.212;2023-03-01T16:24:02;7.40;;;2.15;;
50531;SDS011;36483;37.396;-122.212;2023-03-01T16:26:28;5.85;;;1.45;;
50531;SDS011;36483;37.396;-122.212;2023-03-01T16:28:55;5.65;;;1.67;;
50531;SDS011;36483;37.396;-122.212;2023-03-01T16:31:22;5.80;;;1.50;;
50531;SDS011;36483;37.396;-122.212;2023-03-01T16:33:49;6.05;;;1.77;;
50531;SDS011;36483;37.396;-122.212;2023-03-01T16:36:17;5.95;;;1.58;;
50531;SDS011;36483;37.396;-122.212;2023-03-01T16:38:44;6.47;;;1.75;;
50531;SDS011;36483;37.396;-122.212;2023-03-01T16:41:12;6.85;;;1.55;;